createdAt,value
2023-05-01T00:00:05.475Z,0.52
2023-05-01T00:01:04.545Z,0.52
2023-05-01T00:02:04.570Z,0.52
2023-05-01T00:03:04.734Z,0.52
2023-05-01T00:04:04.992Z,0.53
2023-05-01T00:05:04.660Z,0.52
2023-05-01T00:06:04.684Z,0.51
2023-05-01T00:07:04.713Z,0.51
2023-05-01T00:08:04.706Z,0.53
2023-05-01T00:09:04.754Z,0.52
2023-05-01T00:10:04.755Z,0.52
2023-05-01T00:11:04.775Z,0.51
2023-05-01T00:12:04.795Z,0.51
2023-05-01T00:13:04.856Z,0.51
2023-05-01T00:14:04.818Z,0.52
2023-05-01T00:15:04.856Z,0.52
2023-05-01T00:16:04.894Z,0.53
2023-05-01T00:17:04.867Z,0.51
2023-05-01T00:18:04.934Z,0.52
2023-05-01T00:19:04.918Z,0.52
2023-05-01T00:20:04.948Z,0.53
2023-05-01T00:21:04.976Z,0.51
2023-05-01T00:22:05.004Z,0.51
2023-05-01T00:23:04.985Z,0.52
2023-05-01T00:24:05.030Z,0.52
2023-05-01T00:25:05.030Z,0.51
2023-05-01T00:26:05.032Z,0.53
2023-05-01T00:27:05.080Z,0.52
2023-05-01T00:28:05.071Z,0.52
2023-05-01T00:29:05.109Z,0.50
2023-05-01T00:30:05.092Z,0.51
2023-05-01T00:31:05.107Z,0.52
2023-05-01T00:32:05.228Z,0.52
2023-05-01T00:33:05.140Z,0.51
2023-05-01T00:34:05.144Z,0.52
2023-05-01T00:35:05.185Z,0.53
2023-05-01T00:36:05.163Z,0.52
2023-05-01T00:37:05.203Z,0.52
2023-05-01T00:38:05.196Z,0.52
2023-05-01T00:39:05.230Z,0.53
2023-05-01T00:40:05.288Z,0.53
2023-05-01T00:41:05.281Z,0.52
2023-05-01T00:42:05.278Z,0.52
2023-05-01T00:43:05.308Z,0.52
2023-05-01T00:44:05.343Z,0.52
2023-05-01T00:45:05.354Z,0.51
2023-05-01T00:46:05.425Z,0.53
2023-05-01T00:47:05.412Z,0.52
2023-05-01T00:48:05.476Z,0.52
2023-05-01T00:49:05.456Z,0.52
2023-05-01T00:50:05.484Z,0.52
2023-05-01T00:51:05.526Z,0.50
2023-05-01T00:52:05.541Z,0.51
2023-05-01T00:53:05.554Z,0.53
2023-05-01T00:54:05.593Z,0.52
2023-05-01T00:55:05.609Z,0.52
2023-05-01T00:56:05.688Z,0.53
2023-05-01T00:57:05.701Z,0.51
2023-05-01T00:58:05.725Z,0.53
2023-05-01T00:59:05.774Z,0.53
2023-05-01T01:00:05.806Z,0.52
2023-05-01T01:01:05.879Z,0.52
2023-05-01T01:02:05.857Z,0.51
2023-05-01T01:03:05.957Z,0.52
2023-05-01T01:04:05.934Z,0.53
2023-05-01T01:05:06.045Z,0.52
2023-05-01T01:06:05.944Z,0.52
2023-05-01T01:07:05.982Z,0.52
2023-05-01T01:08:06.018Z,0.52
2023-05-01T01:09:05.997Z,0.52
2023-05-01T01:10:06.058Z,0.51
2023-05-01T01:11:06.069Z,0.51
2023-05-01T01:12:06.109Z,0.53
2023-05-01T01:13:06.161Z,0.52
2023-05-01T01:14:06.229Z,0.51
2023-05-01T01:15:06.223Z,0.52
2023-05-01T01:16:06.252Z,0.52
2023-05-01T01:17:06.409Z,0.53
2023-05-01T01:18:06.366Z,0.52
2023-05-01T01:19:06.345Z,0.53
2023-05-01T01:20:06.387Z,0.52
2023-05-01T01:21:06.375Z,0.53
2023-05-01T01:22:06.435Z,0.53
2023-05-01T01:23:06.440Z,0.53
2023-05-01T01:24:06.496Z,0.52
2023-05-01T01:25:06.477Z,0.53
2023-05-01T01:26:06.545Z,0.52
2023-05-01T01:27:06.565Z,0.53
2023-05-01T01:28:06.609Z,0.53
2023-05-01T01:29:06.645Z,0.53
2023-05-01T01:30:06.642Z,0.51
2023-05-01T01:31:06.717Z,0.54
2023-05-01T01:32:06.747Z,0.52
2023-05-01T01:33:06.798Z,0.53
2023-05-01T01:34:06.764Z,0.52
2023-05-01T01:35:06.804Z,0.52
2023-05-01T01:36:06.856Z,0.52
2023-05-01T01:37:06.878Z,0.52
2023-05-01T01:38:06.913Z,0.52
2023-05-01T01:39:06.971Z,0.51
2023-05-01T01:40:06.978Z,0.51
2023-05-01T01:41:07.027Z,0.52
2023-05-01T01:42:07.055Z,0.52
2023-05-01T01:43:07.096Z,0.52
2023-05-01T01:44:07.110Z,0.52
2023-05-01T01:45:07.173Z,0.53
2023-05-01T01:46:07.176Z,0.53
2023-05-01T01:47:07.222Z,0.52
2023-05-01T01:48:07.282Z,0.52
2023-05-01T01:49:07.294Z,0.52
2023-05-01T01:50:07.320Z,0.53
2023-05-01T01:51:07.352Z,0.53
2023-05-01T01:52:07.357Z,0.53
2023-05-01T01:53:07.382Z,0.53
2023-05-01T01:54:07.420Z,0.53
2023-05-01T01:55:07.446Z,0.51
2023-05-01T01:56:07.483Z,0.53
2023-05-01T01:57:07.541Z,0.52
2023-05-01T01:58:08.136Z,0.51
2023-05-01T01:59:07.606Z,0.51
2023-05-01T02:00:07.652Z,0.52
2023-05-01T02:01:07.654Z,0.50
2023-05-01T02:02:07.730Z,0.52
2023-05-01T02:03:07.810Z,0.52
2023-05-01T02:04:07.920Z,0.51
2023-05-01T02:05:07.808Z,0.53
2023-05-01T02:06:08.022Z,0.52
2023-05-01T02:07:07.868Z,0.51
2023-05-01T02:08:07.873Z,0.52
2023-05-01T02:09:07.878Z,0.53
2023-05-01T02:10:07.910Z,0.52
2023-05-01T02:11:07.957Z,0.52
2023-05-01T02:12:07.968Z,0.53
2023-05-01T02:13:08.042Z,0.52
2023-05-01T02:14:08.015Z,0.51
2023-05-01T02:15:08.080Z,0.54
2023-05-01T02:16:08.101Z,0.51
2023-05-01T02:17:08.150Z,0.52
2023-05-01T02:18:08.231Z,0.53
2023-05-01T02:19:08.198Z,0.53
2023-05-01T02:20:08.250Z,0.52
2023-05-01T02:21:08.246Z,0.52
2023-05-01T02:22:08.297Z,0.52
2023-05-01T02:23:08.354Z,0.53
2023-05-01T02:24:08.372Z,0.53
2023-05-01T02:25:08.403Z,0.52
2023-05-01T02:26:08.469Z,0.52
2023-05-01T02:27:08.492Z,0.51
2023-05-01T02:28:08.510Z,0.51
2023-05-01T02:29:08.561Z,0.53
2023-05-01T02:30:08.611Z,0.52
2023-05-01T02:31:08.649Z,0.52
2023-05-01T02:32:08.747Z,0.52
2023-05-01T02:33:08.806Z,0.51
2023-05-01T02:34:08.779Z,0.51
2023-05-01T02:35:08.779Z,0.52
2023-05-01T02:36:08.817Z,0.52
2023-05-01T02:37:08.881Z,0.52
2023-05-01T02:38:08.886Z,0.51
2023-05-01T02:39:08.935Z,0.52
2023-05-01T02:40:08.963Z,0.51
2023-05-01T02:41:09.017Z,0.52
2023-05-01T02:42:09.065Z,0.52
2023-05-01T02:43:09.162Z,0.52
2023-05-01T02:44:09.131Z,0.51
2023-05-01T02:45:10.718Z,0.52
2023-05-01T02:46:09.251Z,0.52
2023-05-01T02:47:09.296Z,0.52
2023-05-01T02:48:09.411Z,0.51
2023-05-01T02:49:09.339Z,0.52
2023-05-01T02:50:09.366Z,0.52
2023-05-01T02:51:09.404Z,0.51
2023-05-01T02:52:09.456Z,0.52
2023-05-01T02:53:09.496Z,0.52
2023-05-01T02:54:09.513Z,0.51
2023-05-01T02:55:09.593Z,0.52
2023-05-01T02:56:09.607Z,0.52
2023-05-01T02:57:09.667Z,0.52
2023-05-01T02:58:09.700Z,0.51
2023-05-01T02:59:09.736Z,0.52
2023-05-01T03:00:09.822Z,0.52
2023-05-01T03:01:09.854Z,0.51
2023-05-01T03:02:09.884Z,0.52
2023-05-01T03:03:09.992Z,0.51
2023-05-01T03:04:09.978Z,0.52
2023-05-01T03:05:09.989Z,0.52
2023-05-01T03:06:10.080Z,0.52
2023-05-01T03:07:10.077Z,0.53
2023-05-01T03:08:10.160Z,0.52
2023-05-01T03:09:10.170Z,0.51
2023-05-01T03:10:10.200Z,0.53
2023-05-01T03:11:10.262Z,0.52
2023-05-01T03:12:10.297Z,0.52
2023-05-01T03:13:10.328Z,0.51
2023-05-01T03:14:10.376Z,0.52
2023-05-01T03:15:10.434Z,0.52
2023-05-01T03:16:10.466Z,0.53
2023-05-01T03:17:10.501Z,0.52
2023-05-01T03:18:10.567Z,0.52
2023-05-01T03:19:10.576Z,0.52
2023-05-01T03:20:10.662Z,0.53
2023-05-01T03:21:10.676Z,0.51
2023-05-01T03:22:10.720Z,0.51
2023-05-01T03:23:10.749Z,0.52
2023-05-01T03:24:10.794Z,0.52
2023-05-01T03:25:10.865Z,0.53
2023-05-01T03:26:10.857Z,0.53
2023-05-01T03:27:10.940Z,0.51
2023-05-01T03:28:10.972Z,0.52
2023-05-01T03:29:11.038Z,0.52
2023-05-01T03:30:11.059Z,0.52
2023-05-01T03:31:11.108Z,0.52
2023-05-01T03:32:11.178Z,0.51
2023-05-01T03:33:11.281Z,0.52
2023-05-01T03:34:11.228Z,0.53
2023-05-01T03:35:11.339Z,0.52
2023-05-01T03:36:11.313Z,0.52
2023-05-01T03:37:11.338Z,0.52
2023-05-01T03:38:11.367Z,0.53
2023-05-01T03:39:11.424Z,0.52
2023-05-01T03:40:11.478Z,0.52
2023-05-01T03:41:11.504Z,0.52
2023-05-01T03:42:11.583Z,0.52
2023-05-01T03:43:11.625Z,0.52
2023-05-01T03:44:11.612Z,0.52
2023-05-01T03:45:11.700Z,0.52
2023-05-01T03:46:11.749Z,0.51
2023-05-01T03:47:11.769Z,0.51
2023-05-01T03:48:11.889Z,0.51
2023-05-01T03:49:11.830Z,0.51
2023-05-01T03:50:11.894Z,0.52
2023-05-01T03:51:11.935Z,0.52
2023-05-01T03:52:12.010Z,0.52
2023-05-01T03:53:12.030Z,0.51
2023-05-01T03:54:12.078Z,0.51
2023-05-01T03:55:12.147Z,0.52
2023-05-01T03:56:12.160Z,0.52
2023-05-01T03:57:12.204Z,0.51
2023-05-01T03:58:12.260Z,0.51
2023-05-01T03:59:12.274Z,0.51
2023-05-01T04:00:12.314Z,0.52
2023-05-01T04:01:12.352Z,0.52
2023-05-01T04:02:12.448Z,0.50
2023-05-01T04:03:12.493Z,0.51
2023-05-01T04:04:12.571Z,0.51
2023-05-01T04:05:12.530Z,0.51
2023-05-01T04:06:12.622Z,0.52
2023-05-01T04:07:12.631Z,0.52
2023-05-01T04:08:12.703Z,0.52
2023-05-01T04:09:12.738Z,0.52
2023-05-01T04:10:12.786Z,0.52
2023-05-01T04:11:12.830Z,0.53
2023-05-01T04:12:12.876Z,0.51
2023-05-01T04:13:12.932Z,0.51
2023-05-01T04:14:12.978Z,0.52
2023-05-01T04:15:14.904Z,0.51
2023-05-01T04:16:13.150Z,0.51
2023-05-01T04:17:13.154Z,0.52
2023-05-01T04:18:13.290Z,0.51
2023-05-01T04:19:13.252Z,0.53
2023-05-01T04:20:13.312Z,0.52
2023-05-01T04:21:13.365Z,0.52
2023-05-01T04:22:13.393Z,0.51
2023-05-01T04:23:13.458Z,0.53
2023-05-01T04:24:13.506Z,0.52
2023-05-01T04:25:13.555Z,0.53
2023-05-01T04:26:13.604Z,0.52
2023-05-01T04:27:13.651Z,0.53
2023-05-01T04:28:13.705Z,0.51
2023-05-01T04:29:13.748Z,0.51
2023-05-01T04:30:13.797Z,0.51
2023-05-01T04:31:13.859Z,0.51
2023-05-01T04:32:13.888Z,0.51
2023-05-01T04:33:13.917Z,0.51
2023-05-01T04:34:13.951Z,0.51
2023-05-01T04:35:14.022Z,0.51
2023-05-01T04:36:14.041Z,0.52
2023-05-01T04:37:14.241Z,0.52
2023-05-01T04:38:14.171Z,0.52
2023-05-01T04:39:14.222Z,0.53
2023-05-01T04:40:14.232Z,0.52
2023-05-01T04:41:14.283Z,0.52
2023-05-01T04:42:14.326Z,0.52
2023-05-01T04:43:14.374Z,0.52
2023-05-01T04:44:14.438Z,0.52
2023-05-01T04:45:14.452Z,0.52
2023-05-01T04:46:14.559Z,0.52
2023-05-01T04:47:14.552Z,0.52
2023-05-01T04:48:14.627Z,0.53
2023-05-01T04:49:14.744Z,0.52
2023-05-01T04:50:14.716Z,0.53
2023-05-01T04:51:14.739Z,0.51
2023-05-01T04:52:15.732Z,0.52
2023-05-01T04:53:14.811Z,0.52
2023-05-01T04:54:14.854Z,0.52
2023-05-01T04:55:14.933Z,0.51
2023-05-01T04:56:14.946Z,0.52
2023-05-01T04:57:15.010Z,0.52
2023-05-01T04:58:15.045Z,0.53
2023-05-01T04:59:15.095Z,0.51
2023-05-01T05:00:15.134Z,0.52
2023-05-01T05:01:15.213Z,0.52
2023-05-01T05:02:15.284Z,0.50
2023-05-01T05:03:15.416Z,0.51
2023-05-01T05:04:15.330Z,0.52
2023-05-01T05:05:15.352Z,0.51
2023-05-01T05:06:15.432Z,0.52
2023-05-01T05:07:15.429Z,0.52
2023-05-01T05:08:15.464Z,0.51
2023-05-01T05:09:16.950Z,0.52
2023-05-01T05:10:15.520Z,0.52
2023-05-01T05:11:15.522Z,0.53
2023-05-01T05:12:15.531Z,0.52
2023-05-01T05:13:15.471Z,0.51
2023-05-01T05:14:15.462Z,0.50
2023-05-01T05:15:15.482Z,0.52
2023-05-01T05:16:15.479Z,0.50
2023-05-01T05:17:15.466Z,0.53
2023-05-01T05:18:15.521Z,0.52
2023-05-01T05:19:15.477Z,0.51
2023-05-01T05:20:15.456Z,0.52
2023-05-01T05:21:15.476Z,0.51
2023-05-01T05:22:15.411Z,0.52
2023-05-01T05:23:15.434Z,0.52
2023-05-01T05:24:15.457Z,0.50
2023-05-01T05:25:15.388Z,0.51
2023-05-01T05:26:15.387Z,0.52
2023-05-01T05:27:15.430Z,0.50
2023-05-01T05:28:15.413Z,0.51
2023-05-01T05:29:15.404Z,0.51
2023-05-01T05:30:15.371Z,0.52
2023-05-01T05:31:15.397Z,0.52
2023-05-01T05:32:15.418Z,0.51
2023-05-01T05:33:15.465Z,0.52
2023-05-01T05:34:15.350Z,0.50
2023-05-01T05:35:15.357Z,0.52
2023-05-01T05:36:15.349Z,0.52
2023-05-01T05:37:15.339Z,0.51
2023-05-01T05:38:15.326Z,0.51
2023-05-01T05:39:15.337Z,0.51
2023-05-01T05:40:15.341Z,0.51
2023-05-01T05:41:15.364Z,0.52
2023-05-01T05:42:15.776Z,0.52
2023-05-01T05:43:15.287Z,0.51
2023-05-01T05:44:15.279Z,0.51
2023-05-01T05:45:15.265Z,0.52
2023-05-01T05:46:15.303Z,0.51
2023-05-01T05:47:15.284Z,0.52
2023-05-01T05:48:15.368Z,0.51
2023-05-01T05:49:15.273Z,0.52
2023-05-01T05:50:15.261Z,0.53
2023-05-01T05:51:15.249Z,0.53
2023-05-01T05:52:15.265Z,0.52
2023-05-01T05:53:15.246Z,0.52
2023-05-01T05:54:15.207Z,0.51
2023-05-01T05:55:15.213Z,0.53
2023-05-01T05:56:15.209Z,0.51
2023-05-01T05:57:15.200Z,0.52
2023-05-01T05:58:15.249Z,0.52
2023-05-01T05:59:17.301Z,0.53
2023-05-01T06:00:15.371Z,0.52
2023-05-01T06:01:15.401Z,0.53
2023-05-01T06:02:15.448Z,0.52
2023-05-01T06:03:15.536Z,0.52
2023-05-01T06:04:15.490Z,0.53
2023-05-01T06:05:15.586Z,0.53
2023-05-01T06:06:15.607Z,0.53
2023-05-01T06:07:15.636Z,0.53
2023-05-01T06:08:15.655Z,0.53
2023-05-01T06:09:15.702Z,0.53
2023-05-01T06:10:15.713Z,0.51
2023-05-01T06:11:15.788Z,0.51
2023-05-01T06:12:15.814Z,0.51
2023-05-01T06:13:15.892Z,0.52
2023-05-01T06:14:15.884Z,0.53
2023-05-01T06:15:15.942Z,0.52
2023-05-01T06:16:16.018Z,0.52
2023-05-01T06:17:16.041Z,0.52
2023-05-01T06:18:16.261Z,0.52
2023-05-01T06:19:16.193Z,0.52
2023-05-01T06:20:16.190Z,0.52
2023-05-01T06:21:16.194Z,0.52
2023-05-01T06:22:16.263Z,0.51
2023-05-01T06:23:16.316Z,0.52
2023-05-01T06:24:16.338Z,0.51
2023-05-01T06:25:16.388Z,0.52
2023-05-01T06:26:16.419Z,0.54
2023-05-01T06:27:16.424Z,0.53
2023-05-01T06:28:16.475Z,0.53
2023-05-01T06:29:16.542Z,0.54
2023-05-01T06:30:16.523Z,0.52
2023-05-01T06:31:16.563Z,0.52
2023-05-01T06:32:16.583Z,0.52
2023-05-01T06:33:16.666Z,0.52
2023-05-01T06:34:16.665Z,0.53
2023-05-01T06:35:16.702Z,0.53
2023-05-01T06:36:16.748Z,0.52
2023-05-01T06:37:16.776Z,0.52
2023-05-01T06:38:16.805Z,0.51
2023-05-01T06:39:16.841Z,0.52
2023-05-01T06:40:16.867Z,0.53
2023-05-01T06:41:16.897Z,0.53
2023-05-01T06:42:16.955Z,0.53
2023-05-01T06:43:17.792Z,0.54
2023-05-01T06:44:17.008Z,0.51
2023-05-01T06:45:17.028Z,0.54
2023-05-01T06:46:17.116Z,0.54
2023-05-01T06:47:17.096Z,0.54
2023-05-01T06:48:17.138Z,0.53
2023-05-01T06:49:17.135Z,0.54
2023-05-01T06:50:17.198Z,0.54
2023-05-01T06:51:17.206Z,0.54
2023-05-01T06:52:17.244Z,0.52
2023-05-01T06:53:17.269Z,0.53
2023-05-01T06:54:17.309Z,0.53
2023-05-01T06:55:17.364Z,0.53
2023-05-01T06:56:17.378Z,0.53
2023-05-01T06:57:17.430Z,0.52
2023-05-01T06:58:23.844Z,0.51
2023-05-01T06:59:18.426Z,0.52
2023-05-01T07:00:17.531Z,0.52
2023-05-01T07:01:17.457Z,0.52
2023-05-01T07:02:17.490Z,0.53
2023-05-01T07:03:17.578Z,0.54
2023-05-01T07:04:17.414Z,0.52
2023-05-01T07:05:17.433Z,0.54
2023-05-01T07:06:17.475Z,0.53
2023-05-01T07:07:17.424Z,0.54
2023-05-01T07:08:17.400Z,0.53
2023-05-01T07:09:17.405Z,0.54
2023-05-01T07:10:17.374Z,0.53
2023-05-01T07:11:17.355Z,0.54
2023-05-01T07:12:17.376Z,0.53
2023-05-01T07:13:17.493Z,0.51
2023-05-01T07:14:17.482Z,0.52
2023-05-01T07:15:17.505Z,0.54
2023-05-01T07:16:17.574Z,0.54
2023-05-01T07:17:17.589Z,0.53
2023-05-01T07:18:17.601Z,0.52
2023-05-01T07:19:17.636Z,0.52
2023-05-01T07:20:17.662Z,0.52
2023-05-01T07:21:17.698Z,0.52
2023-05-01T07:22:17.728Z,0.52
2023-05-01T07:23:17.763Z,0.51
2023-05-01T07:24:17.797Z,0.51
2023-05-01T07:25:17.817Z,0.51
2023-05-01T07:26:17.870Z,0.52
2023-05-01T07:27:17.902Z,0.52
2023-05-01T07:28:17.930Z,0.52
2023-05-01T07:29:17.975Z,0.52
2023-05-01T07:30:17.990Z,0.54
2023-05-01T07:31:18.031Z,0.54
2023-05-01T07:32:18.192Z,0.52
2023-05-01T07:33:18.164Z,0.52
2023-05-01T07:34:18.090Z,0.52
2023-05-01T07:35:18.163Z,0.52
2023-05-01T07:36:18.205Z,0.52
2023-05-01T07:37:18.234Z,0.52
2023-05-01T07:38:18.297Z,0.53
2023-05-01T07:39:18.304Z,0.52
2023-05-01T07:40:18.312Z,0.51
2023-05-01T07:41:18.368Z,0.53
2023-05-01T07:42:18.398Z,0.52
2023-05-01T07:43:19.314Z,0.52
2023-05-01T07:44:18.430Z,0.51
2023-05-01T07:45:18.463Z,0.51
2023-05-01T07:46:18.493Z,0.51
2023-05-01T07:47:18.500Z,0.52
2023-05-01T07:48:18.541Z,0.52
2023-05-01T07:49:18.558Z,0.51
2023-05-01T07:50:18.590Z,0.52
2023-05-01T07:51:18.623Z,0.53
2023-05-01T07:52:18.674Z,0.51
2023-05-01T07:53:18.645Z,0.52
2023-05-01T07:54:18.696Z,0.52
2023-05-01T07:55:18.737Z,0.52
2023-05-01T07:56:18.727Z,0.51
2023-05-01T07:57:18.750Z,0.52
2023-05-01T07:58:18.786Z,0.51
2023-05-01T07:59:18.787Z,0.53
2023-05-01T08:00:18.802Z,0.52
2023-05-01T08:01:18.925Z,0.53
2023-05-01T08:02:18.932Z,0.54
2023-05-01T08:03:19.008Z,0.52
2023-05-01T08:04:18.984Z,0.52
2023-05-01T08:05:18.923Z,0.52
2023-05-01T08:06:18.993Z,0.51
2023-05-01T08:07:18.984Z,0.52
2023-05-01T08:08:18.979Z,0.52
2023-05-01T08:09:19.009Z,0.52
2023-05-01T08:10:19.019Z,0.52
2023-05-01T08:11:19.060Z,0.52
2023-05-01T08:12:19.041Z,0.51
2023-05-01T08:13:19.038Z,0.51
2023-05-01T08:14:19.086Z,0.52
2023-05-01T08:15:19.058Z,0.51
2023-05-01T08:16:21.157Z,0.53
2023-05-01T08:17:19.460Z,0.53
2023-05-01T08:18:19.342Z,0.52
2023-05-01T08:19:19.369Z,0.51
2023-05-01T08:20:19.376Z,0.51
2023-05-01T08:21:19.364Z,0.51
2023-05-01T08:22:19.412Z,0.52
2023-05-01T08:23:19.401Z,0.51
2023-05-01T08:24:19.417Z,0.52
2023-05-01T08:25:19.401Z,0.53
2023-05-01T08:26:20.788Z,0.50
2023-05-01T08:27:19.456Z,0.51
2023-05-01T08:28:19.437Z,0.51
2023-05-01T08:29:19.445Z,0.51
2023-05-01T08:30:19.466Z,0.51
2023-05-01T08:31:19.658Z,0.51
2023-05-01T08:32:19.490Z,0.50
2023-05-01T08:33:19.520Z,0.51
2023-05-01T08:34:19.477Z,0.52
2023-05-01T08:35:19.502Z,0.52
2023-05-01T08:36:21.252Z,0.52
2023-05-01T08:37:19.536Z,0.51
2023-05-01T08:38:19.533Z,0.53
2023-05-01T08:39:19.527Z,0.54
2023-05-01T08:40:19.524Z,0.52
2023-05-01T08:41:19.537Z,0.53
2023-05-01T08:42:19.550Z,0.53
2023-05-01T08:43:19.568Z,0.52
2023-05-01T08:44:19.558Z,0.52
2023-05-01T08:45:19.568Z,0.53
2023-05-01T08:46:19.660Z,0.51
2023-05-01T08:47:19.608Z,0.52
2023-05-01T08:48:19.586Z,0.53
2023-05-01T08:49:19.584Z,0.52
2023-05-01T08:50:19.631Z,0.52
2023-05-01T08:51:21.179Z,0.51
2023-05-01T08:52:19.641Z,0.53
2023-05-01T08:53:19.639Z,0.52
2023-05-01T08:54:19.640Z,0.52
2023-05-01T08:55:19.640Z,0.53
2023-05-01T08:56:19.625Z,0.52
2023-05-01T08:57:19.646Z,0.53
2023-05-01T08:58:19.638Z,0.51
2023-05-01T08:59:19.592Z,0.51
2023-05-01T09:00:19.655Z,0.53
2023-05-01T09:01:19.647Z,0.52
2023-05-01T09:02:19.659Z,0.51
2023-05-01T09:03:19.740Z,0.51
2023-05-01T09:04:19.658Z,0.51
2023-05-01T09:05:19.631Z,0.52
2023-05-01T09:06:19.620Z,0.51
2023-05-01T09:07:19.588Z,0.51
2023-05-01T09:08:19.601Z,0.50
2023-05-01T09:09:19.573Z,0.52
2023-05-01T09:10:19.570Z,0.51
2023-05-01T09:11:19.576Z,0.51
2023-05-01T09:12:19.573Z,0.50
2023-05-01T09:13:19.566Z,0.51
2023-05-01T09:14:19.570Z,0.51
2023-05-01T09:15:19.573Z,0.52
2023-05-01T09:16:19.597Z,0.52
2023-05-01T09:17:19.624Z,0.51
2023-05-01T09:18:19.743Z,0.51
2023-05-01T09:19:19.538Z,0.51
2023-05-01T09:20:19.533Z,0.51
2023-05-01T09:21:19.510Z,0.51
2023-05-01T09:22:19.534Z,0.51
2023-05-01T09:23:19.525Z,0.51
2023-05-01T09:24:19.508Z,0.52
2023-05-01T09:25:19.518Z,0.52
2023-05-01T09:26:19.530Z,0.52
2023-05-01T09:27:19.521Z,0.51
2023-05-01T09:28:19.502Z,0.51
2023-05-01T09:29:19.490Z,0.52
2023-05-01T09:30:19.549Z,0.52
2023-05-01T09:31:19.534Z,0.52
2023-05-01T09:32:19.508Z,0.51
2023-05-01T09:33:19.594Z,0.52
2023-05-01T09:34:19.475Z,0.52
2023-05-01T09:35:19.509Z,0.53
2023-05-01T09:36:19.507Z,0.52
2023-05-01T09:37:19.508Z,0.53
2023-05-01T09:38:19.555Z,0.51
2023-05-01T09:39:19.548Z,0.51
2023-05-01T09:40:19.543Z,0.52
2023-05-01T09:41:19.562Z,0.51
2023-05-01T09:42:19.584Z,0.51
2023-05-01T09:43:19.616Z,0.53
2023-05-01T09:44:19.624Z,0.52
2023-05-01T09:45:19.645Z,0.53
2023-05-01T09:46:19.792Z,0.53
2023-05-01T09:47:19.784Z,0.52
2023-05-01T09:48:19.846Z,0.53
2023-05-01T09:49:19.921Z,0.53
2023-05-01T09:50:19.961Z,0.53
2023-05-01T09:51:19.962Z,0.53
2023-05-01T09:52:20.019Z,0.52
2023-05-01T09:53:20.068Z,0.52
2023-05-01T09:54:20.103Z,0.52
2023-05-01T09:55:20.141Z,0.52
2023-05-01T09:56:20.184Z,0.53
2023-05-01T09:57:20.172Z,0.53
2023-05-01T09:58:20.181Z,0.52
2023-05-01T09:59:20.255Z,0.51
2023-05-01T10:00:20.283Z,0.51
2023-05-01T10:01:20.422Z,0.52
2023-05-01T10:02:20.459Z,0.53
2023-05-01T10:03:20.576Z,0.51
2023-05-01T10:04:20.519Z,0.51
2023-05-01T10:05:20.578Z,0.52
2023-05-01T10:06:20.662Z,0.52
2023-05-01T10:07:20.699Z,0.53
2023-05-01T10:08:20.781Z,0.53
2023-05-01T10:09:20.797Z,0.53
2023-05-01T10:10:20.928Z,0.53
2023-05-01T10:11:20.891Z,0.53
2023-05-01T10:12:20.964Z,0.52
2023-05-01T10:13:21.000Z,0.52
2023-05-01T10:14:21.063Z,0.52
2023-05-01T10:15:26.109Z,0.52
2023-05-01T10:16:22.227Z,0.53
2023-05-01T10:17:21.247Z,0.53
2023-05-01T10:18:21.069Z,0.53
2023-05-01T10:19:21.195Z,0.53
2023-05-01T10:20:21.067Z,0.54
2023-05-01T10:21:21.020Z,0.53
2023-05-01T10:22:21.028Z,0.53
2023-05-01T10:23:21.127Z,0.52
2023-05-01T10:24:21.016Z,0.53
2023-05-01T10:25:21.010Z,0.52
2023-05-01T10:26:21.010Z,0.53
2023-05-01T10:27:20.998Z,0.53
2023-05-01T10:28:21.048Z,0.53
2023-05-01T10:29:21.099Z,0.53
2023-05-01T10:30:21.191Z,0.53
2023-05-01T10:31:21.319Z,0.53
2023-05-01T10:32:21.302Z,0.55
2023-05-01T10:33:21.477Z,0.54
2023-05-01T10:34:21.400Z,0.54
2023-05-01T10:35:21.486Z,0.55
2023-05-01T10:36:21.467Z,0.55
2023-05-01T10:37:21.536Z,0.53
2023-05-01T10:38:21.568Z,0.54
2023-05-01T10:39:21.596Z,0.55
2023-05-01T10:40:21.637Z,0.54
2023-05-01T10:41:21.820Z,0.55
2023-05-01T10:42:21.722Z,0.54
2023-05-01T10:43:21.744Z,0.55
2023-05-01T10:44:21.852Z,0.55
2023-05-01T10:45:21.851Z,0.55
2023-05-01T10:46:22.053Z,0.55
2023-05-01T10:47:22.028Z,0.55
2023-05-01T10:48:22.068Z,0.54
2023-05-01T10:49:22.107Z,0.53
2023-05-01T10:50:22.155Z,0.53
2023-05-01T10:51:23.265Z,0.54
2023-05-01T10:52:22.161Z,0.54
2023-05-01T10:53:22.184Z,0.55
2023-05-01T10:54:22.182Z,0.55
2023-05-01T10:55:22.195Z,0.54
2023-05-01T10:56:22.159Z,0.55
2023-05-01T10:57:22.188Z,0.55
2023-05-01T10:58:22.143Z,0.54
2023-05-01T10:59:22.164Z,0.54
2023-05-01T11:00:22.130Z,0.53
2023-05-01T11:01:22.173Z,0.55
2023-05-01T11:02:22.210Z,0.54
2023-05-01T11:03:22.131Z,0.54
2023-05-01T11:04:22.191Z,0.55
2023-05-01T11:05:35.710Z,0.55
2023-05-01T11:06:23.258Z,0.55
2023-05-01T11:07:22.280Z,0.55
2023-05-01T11:08:22.073Z,0.54
2023-05-01T11:09:22.070Z,0.55
2023-05-01T11:10:22.084Z,0.54
2023-05-01T11:11:22.086Z,0.55
2023-05-01T11:12:22.073Z,0.54
2023-05-01T11:13:22.067Z,0.55
2023-05-01T11:14:22.107Z,0.54
2023-05-01T11:15:22.158Z,0.54
2023-05-01T11:16:22.287Z,0.55
2023-05-01T11:17:22.395Z,0.53
2023-05-01T11:18:22.398Z,0.54
2023-05-01T11:19:22.429Z,0.53
2023-05-01T11:20:22.529Z,0.54
2023-05-01T11:21:22.529Z,0.54
2023-05-01T11:22:22.596Z,0.54
2023-05-01T11:23:22.687Z,0.54
2023-05-01T11:24:22.721Z,0.54
2023-05-01T11:25:22.797Z,0.54
2023-05-01T11:26:22.854Z,0.55
2023-05-01T11:27:22.959Z,0.54
2023-05-01T11:28:23.001Z,0.55
2023-05-01T11:29:23.054Z,0.55
2023-05-01T11:30:23.115Z,0.55
2023-05-01T11:31:23.216Z,0.54
2023-05-01T11:32:23.277Z,0.54
2023-05-01T11:33:23.388Z,0.55
2023-05-01T11:34:23.330Z,0.54
2023-05-01T11:35:23.422Z,0.55
2023-05-01T11:36:23.470Z,0.55
2023-05-01T11:37:23.545Z,0.55
2023-05-01T11:38:23.599Z,0.54
2023-05-01T11:39:23.673Z,0.55
2023-05-01T11:40:23.743Z,0.55
2023-05-01T11:41:23.821Z,0.55
2023-05-01T11:42:23.868Z,0.55
2023-05-01T11:43:23.922Z,0.56
2023-05-01T11:44:23.953Z,0.54
2023-05-01T11:45:24.043Z,0.55
2023-05-01T11:46:24.134Z,0.55
2023-05-01T11:47:24.167Z,0.55
2023-05-01T11:48:24.231Z,0.55
2023-05-01T11:49:24.298Z,0.56
2023-05-01T11:50:24.318Z,0.56
2023-05-01T11:51:24.366Z,0.55
2023-05-01T11:52:24.452Z,0.56
2023-05-01T11:53:24.516Z,0.56
2023-05-01T11:54:24.585Z,0.56
2023-05-01T11:55:24.646Z,0.56
2023-05-01T11:56:26.979Z,0.57
2023-05-01T11:57:24.926Z,0.57
2023-05-01T11:58:24.980Z,0.56
2023-05-01T11:59:25.060Z,0.58
2023-05-01T12:00:25.113Z,0.58
2023-05-01T12:01:25.260Z,0.57
2023-05-01T12:02:25.350Z,0.57
2023-05-01T12:03:25.547Z,0.58
2023-05-01T12:04:25.390Z,0.58
2023-05-01T12:05:25.439Z,0.59
2023-05-01T12:06:25.572Z,0.59
2023-05-01T12:07:25.557Z,0.57
2023-05-01T12:08:25.641Z,0.58
2023-05-01T12:09:25.658Z,0.57
2023-05-01T12:10:25.746Z,0.57
2023-05-01T12:11:25.819Z,0.58
2023-05-01T12:12:25.887Z,0.58
2023-05-01T12:13:25.960Z,0.58
2023-05-01T12:14:25.965Z,0.58
2023-05-01T12:15:26.050Z,0.58
2023-05-01T12:16:26.140Z,0.58
2023-05-01T12:17:26.334Z,0.58
2023-05-01T12:18:26.267Z,0.57
2023-05-01T12:19:26.315Z,0.59
2023-05-01T12:20:26.390Z,0.59
2023-05-01T12:21:26.414Z,0.59
2023-05-01T12:22:26.500Z,0.59
2023-05-01T12:23:26.538Z,0.58
2023-05-01T12:24:26.587Z,0.58
2023-05-01T12:25:26.671Z,0.57
2023-05-01T12:26:26.815Z,0.58
2023-05-01T12:27:26.823Z,0.57
2023-05-01T12:28:26.906Z,0.58
2023-05-01T12:29:26.929Z,0.59
2023-05-01T12:30:27.000Z,0.58
2023-05-01T12:31:27.086Z,0.58
2023-05-01T12:32:27.071Z,0.59
2023-05-01T12:33:27.183Z,0.57
2023-05-01T12:34:27.191Z,0.58
2023-05-01T12:35:27.269Z,0.58
2023-05-01T12:36:27.475Z,0.59
2023-05-01T12:37:27.391Z,0.57
2023-05-01T12:38:27.461Z,0.56
2023-05-01T12:39:27.509Z,0.58
2023-05-01T12:40:27.553Z,0.57
2023-05-01T12:41:27.623Z,0.57
2023-05-01T12:42:27.662Z,0.58
2023-05-01T12:43:27.735Z,0.57
2023-05-01T12:44:27.812Z,0.56
2023-05-01T12:45:27.822Z,0.58
2023-05-01T12:46:27.945Z,0.57
2023-05-01T12:47:28.056Z,0.58
2023-05-01T12:48:28.059Z,0.56
2023-05-01T12:49:28.173Z,0.56
2023-05-01T12:50:28.109Z,0.57
2023-05-01T12:51:28.116Z,0.57
2023-05-01T12:52:28.213Z,0.57
2023-05-01T12:53:28.264Z,0.58
2023-05-01T12:54:28.300Z,0.58
2023-05-01T12:55:28.335Z,0.58
2023-05-01T12:56:28.381Z,0.57
2023-05-01T12:57:28.404Z,0.56
2023-05-01T12:58:29.557Z,0.58
2023-05-01T12:59:28.687Z,0.58
2023-05-01T13:00:28.711Z,0.56
2023-05-01T13:01:28.855Z,0.58
2023-05-01T13:02:28.812Z,0.57
2023-05-01T13:03:28.940Z,0.58
2023-05-01T13:04:28.993Z,0.58
2023-05-01T13:05:28.934Z,0.57
2023-05-01T13:06:28.998Z,0.57
2023-05-01T13:07:29.023Z,0.57
2023-05-01T13:08:29.044Z,0.57
2023-05-01T13:09:29.085Z,0.56
2023-05-01T13:10:29.147Z,0.57
2023-05-01T13:11:29.184Z,0.56
2023-05-01T13:12:29.213Z,0.57
2023-05-01T13:13:29.295Z,0.56
2023-05-01T13:14:29.346Z,0.57
2023-05-01T13:15:29.379Z,0.57
2023-05-01T13:16:29.475Z,0.58
2023-05-01T13:17:29.528Z,0.58
2023-05-01T13:18:29.531Z,0.57